sensor_id;sensor_type;location;lat;lon;timestamp;pressure;altitude;pressure_sealevel;temperature
64394;BMP280;50712;49.506;10.400;2022-10-23T00:00:09;98212.13;;;14.80
64394;BMP280;50712;49.506;10.400;2022-10-23T00:00:40;98211.34;;;14.79
64394;BMP280;50712;49.506;10.400;2022-10-23T00:01:17;98208.63;;;14.79
64394;BMP280;50712;49.506;10.400;2022-10-23T00:01:52;98211.34;;;14.79
64394;BMP280;50712;49.506;10.400;2022-10-23T00:02:22;98210.59;;;14.79
64394;BMP280;50712;49.506;10.400;2022-10-23T00:02:52;98196.88;;;14.79
64394;BMP280;50712;49.506;10.400;2022-10-23T00:03:24;98201.59;;;14.78
64394;BMP280;50712;49.506;10.400;2022-10-23T00:03:55;98200.84;;;14.78
64394;BMP280;50712;49.506;10.400;2022-10-23T00:04:28;98193.38;;;14.78
64394;BMP280;50712;49.506;10.400;2022-10-23T00:04:58;98200.38;;;14.79
64394;BMP280;50712;49.506;10.400;2022-10-23T00:05:28;98199.63;;;14.79
64394;BMP280;50712;49.506;10.400;2022-10-23T00:05:59;98201.16;;;14.80
64394;BMP280;50712;49.506;10.400;2022-10-23T00:06:33;98199.63;;;14.79
64394;BMP280;50712;49.506;10.400;2022-10-23T00:07:04;98197.66;;;14.79
64394;BMP280;50712;49.506;10.400;2022-10-23T00:07:34;98194.63;;;14.77
64394;BMP280;50712;49.506;10.400;2022-10-23T00:08:05;98194.13;;;14.79
64394;BMP280;50712;49.506;10.400;2022-10-23T00:08:35;98196.88;;;14.79
64394;BMP280;50712;49.506;10.400;2022-10-23T00:09:06;98200.84;;;14.78
64394;BMP280;50712;49.506;10.400;2022-10-23T00:09:38;98208.31;;;14.77
64394;BMP280;50712;49.506;10.400;2022-10-23T00:10:08;98199.38;;;14.77
64394;BMP280;50712;49.506;10.400;2022-10-23T00:10:40;98206.06;;;14.76
64394;BMP280;50712;49.506;10.400;2022-10-23T00:11:12;98205.28;;;14.75
64394;BMP280;50712;49.506;10.400;2022-10-23T00:11:44;98198.59;;;14.76
64394;BMP280;50712;49.506;10.400;2022-10-23T00:12:19;98196.31;;;14.75
64394;BMP280;50712;49.506;10.400;2022-10-23T00:12:50;98205.28;;;14.75
64394;BMP280;50712;49.506;10.400;2022-10-23T00:13:20;98203.78;;;14.74
64394;BMP280;50712;49.506;10.400;2022-10-23T00:13:52;98201.50;;;14.73
64394;BMP280;50712;49.506;10.400;2022-10-23T00:14:25;98202.25;;;14.73
64394;BMP280;50712;49.506;10.400;2022-10-23T00:14:55;98199.97;;;14.72
64394;BMP280;50712;49.506;10.400;2022-10-23T00:15:25;98199.22;;;14.71
64394;BMP280;50712;49.506;10.400;2022-10-23T00:15:56;98196.50;;;14.71
64394;BMP280;50712;49.506;10.400;2022-10-23T00:16:27;98200.72;;;14.72
64394;BMP280;50712;49.506;10.400;2022-10-23T00:16:57;98199.97;;;14.72
64394;BMP280;50712;49.506;10.400;2022-10-23T00:17:28;98201.97;;;14.71
64394;BMP280;50712;49.506;10.400;2022-10-23T00:18:02;98198.50;;;14.71
64394;BMP280;50712;49.506;10.400;2022-10-23T00:18:33;98195.00;;;14.70
64394;BMP280;50712;49.506;10.400;2022-10-23T00:19:04;98189.50;;;14.70
64394;BMP280;50712;49.506;10.400;2022-10-23T00:19:34;98196.19;;;14.69
64394;BMP280;50712;49.506;10.400;2022-10-23T00:20:05;98188.72;;;14.70
64394;BMP280;50712;49.506;10.400;2022-10-23T00:20:37;98189.94;;;14.69
64394;BMP280;50712;49.506;10.400;2022-10-23T00:21:08;98192.69;;;14.69
64394;BMP280;50712;49.506;10.400;2022-10-23T00:21:40;98188.72;;;14.70
64394;BMP280;50712;49.506;10.400;2022-10-23T00:22:10;98183.69;;;14.68
64394;BMP280;50712;49.506;10.400;2022-10-23T00:22:41;98193.47;;;14.69
64394;BMP280;50712;49.506;10.400;2022-10-23T00:23:11;98182.50;;;14.69
64394;BMP280;50712;49.506;10.400;2022-10-23T00:23:42;98187.97;;;14.69
64394;BMP280;50712;49.506;10.400;2022-10-23T00:24:13;98193.47;;;14.69
64394;BMP280;50712;49.506;10.400;2022-10-23T00:24:44;98188.72;;;14.70
64394;BMP280;50712;49.506;10.400;2022-10-23T00:25:14;98181.72;;;14.69
64394;BMP280;50712;49.506;10.400;2022-10-23T00:25:45;98179.44;;;14.67
64394;BMP280;50712;49.506;10.400;2022-10-23T00:26:15;98181.44;;;14.67
64394;BMP280;50712;49.506;10.400;2022-10-23T00:26:48;98182.19;;;14.67
64394;BMP280;50712;49.506;10.400;2022-10-23T00:27:19;98180.22;;;14.68
64394;BMP280;50712;49.506;10.400;2022-10-23T00:27:50;98190.44;;;14.67
64394;BMP280;50712;49.506;10.400;2022-10-23T00:28:20;98195.16;;;14.67
64394;BMP280;50712;49.506;10.400;2022-10-23T00:28:51;98193.16;;;14.67
64394;BMP280;50712;49.506;10.400;2022-10-23T00:29:23;98186.91;;;14.67
64394;BMP280;50712;49.506;10.400;2022-10-23T00:29:54;98189.66;;;14.67
64394;BMP280;50712;49.506;10.400;2022-10-23T00:30:25;98183.41;;;14.66
64394;BMP280;50712;49.506;10.400;2022-10-23T00:30:55;98192.41;;;14.67
64394;BMP280;50712;49.506;10.400;2022-10-23T00:31:25;98188.91;;;14.66
64394;BMP280;50712;49.506;10.400;2022-10-23T00:31:56;98187.69;;;14.67
64394;BMP280;50712;49.506;10.400;2022-10-23T00:32:26;98199.41;;;14.68
64394;BMP280;50712;49.506;10.400;2022-10-23T00:32:57;98194.38;;;14.66
64394;BMP280;50712;49.506;10.400;2022-10-23T00:33:28;98195.16;;;14.67
64394;BMP280;50712;49.506;10.400;2022-10-23T00:33:58;98188.91;;;14.66
64394;BMP280;50712;49.506;10.400;2022-10-23T00:34:29;98194.38;;;14.66
64394;BMP280;50712;49.506;10.400;2022-10-23T00:35:00;98186.91;;;14.67
64394;BMP280;50712;49.506;10.400;2022-10-23T00:35:30;98191.63;;;14.66
64394;BMP280;50712;49.506;10.400;2022-10-23T00:36:03;98190.88;;;14.66
64394;BMP280;50712;49.506;10.400;2022-10-23T00:36:34;98179.16;;;14.65
64394;BMP280;50712;49.506;10.400;2022-10-23T00:37:05;98189.66;;;14.67
64394;BMP280;50712;49.506;10.400;2022-10-23T00:37:35;98179.91;;;14.66
64394;BMP280;50712;49.506;10.400;2022-10-23T00:38:06;98190.88;;;14.66
64394;BMP280;50712;49.506;10.400;2022-10-23T00:38:37;98174.59;;;14.62
64394;BMP280;50712;49.506;10.400;2022-10-23T00:39:08;98182.66;;;14.66
64394;BMP280;50712;49.506;10.400;2022-10-23T00:39:39;98185.13;;;14.64
64394;BMP280;50712;49.506;10.400;2022-10-23T00:40:09;98188.63;;;14.64
64394;BMP280;50712;49.506;10.400;2022-10-23T00:40:41;98176.59;;;14.62
64394;BMP280;50712;49.506;10.400;2022-10-23T00:41:14;98180.09;;;14.62
64394;BMP280;50712;49.506;10.400;2022-10-23T00:41:52;98181.81;;;14.60
64394;BMP280;50712;49.506;10.400;2022-10-23T00:42:23;98182.28;;;14.58
64394;BMP280;50712;49.506;10.400;2022-10-23T00:42:53;98182.72;;;14.57
64394;BMP280;50712;49.506;10.400;2022-10-23T00:43:25;98179.97;;;14.57
64394;BMP280;50712;49.506;10.400;2022-10-23T00:44:01;98179.97;;;14.57
64394;BMP280;50712;49.506;10.400;2022-10-23T00:45:07;98176.47;;;14.56
64394;BMP280;50712;49.506;10.400;2022-10-23T00:45:39;98182.72;;;14.57
64394;BMP280;50712;49.506;10.400;2022-10-23T00:46:09;98179.97;;;14.57
64394;BMP280;50712;49.506;10.400;2022-10-23T00:46:39;98184.69;;;14.56
64394;BMP280;50712;49.506;10.400;2022-10-23T00:47:10;98185.47;;;14.57
64394;BMP280;50712;49.506;10.400;2022-10-23T00:47:42;98182.72;;;14.57
64394;BMP280;50712;49.506;10.400;2022-10-23T00:48:12;98184.25;;;14.58
64394;BMP280;50712;49.506;10.400;2022-10-23T00:48:43;98185.03;;;14.58
64394;BMP280;50712;49.506;10.400;2022-10-23T00:49:14;98180.75;;;14.57
64394;BMP280;50712;49.506;10.400;2022-10-23T00:49:45;98181.50;;;14.58
64394;BMP280;50712;49.506;10.400;2022-10-23T00:50:15;98182.28;;;14.58
64394;BMP280;50712;49.506;10.400;2022-10-23T00:50:47;98182.28;;;14.58
64394;BMP280;50712;49.506;10.400;2022-10-23T00:51:18;98183.78;;;14.59
64394;BMP280;50712;49.506;10.400;2022-10-23T00:51:50;98183.78;;;14.59
64394;BMP280;50712;49.506;10.400;2022-10-23T00:52:23;98171.31;;;14.58
64394;BMP280;50712;49.506;10.400;2022-10-23T00:52:53;98178.00;;;14.57
64394;BMP280;50712;49.506;10.400;2022-10-23T00:53:26;98175.56;;;14.59
64394;BMP280;50712;49.506;10.400;2022-10-23T00:53:57;98171.31;;;14.58
64394;BMP280;50712;49.506;10.400;2022-10-23T00:54:33;98183.50;;;14.57
64394;BMP280;50712;49.506;10.400;2022-10-23T00:55:06;98178.00;;;14.57
64394;BMP280;50712;49.506;10.400;2022-10-23T00:55:36;98181.97;;;14.56
64394;BMP280;50712;49.506;10.400;2022-10-23T00:56:09;98180.47;;;14.55
64394;BMP280;50712;49.506;10.400;2022-10-23T00:56:41;98170.69;;;14.54
64394;BMP280;50712;49.506;10.400;2022-10-23T00:57:14;98174.69;;;14.53
64394;BMP280;50712;49.506;10.400;2022-10-23T00:57:45;98181.41;;;14.52
64394;BMP280;50712;49.506;10.400;2022-10-23T00:58:18;98179.13;;;14.51
64394;BMP280;50712;49.506;10.400;2022-10-23T00:58:50;98171.38;;;14.49
64394;BMP280;50712;49.506;10.400;2022-10-23T00:59:20;98169.84;;;14.48
64394;BMP280;50712;49.506;10.400;2022-10-23T00:59:50;98170.59;;;14.49
64394;BMP280;50712;49.506;10.400;2022-10-23T01:00:25;98172.56;;;14.48
64394;BMP280;50712;49.506;10.400;2022-10-23T01:00:57;98180.06;;;14.48
64394;BMP280;50712;49.506;10.400;2022-10-23T01:01:28;98176.56;;;14.47
64394;BMP280;50712;49.506;10.400;2022-10-23T01:01:58;98178.53;;;14.47
64394;BMP280;50712;49.506;10.400;2022-10-23T01:02:29;98175.03;;;14.46
64394;BMP280;50712;49.506;10.400;2022-10-23T01:03:00;98177.78;;;14.46
64394;BMP280;50712;49.506;10.400;2022-10-23T01:03:30;98177.78;;;14.46
64394;BMP280;50712;49.506;10.400;2022-10-23T01:04:01;98180.97;;;14.45
64394;BMP280;50712;49.506;10.400;2022-10-23T01:04:33;98176.25;;;14.45
64394;BMP280;50712;49.506;10.400;2022-10-23T01:05:05;98174.28;;;14.46
64394;BMP280;50712;49.506;10.400;2022-10-23T01:07:25;98162.56;;;14.45
64394;BMP280;50712;49.506;10.400;2022-10-23T01:08:05;98159.81;;;14.45
64394;BMP280;50712;49.506;10.400;2022-10-23T01:10:15;98154.00;;;14.43
64394;BMP280;50712;49.506;10.400;2022-10-23T01:11:38;98153.00;;;14.41
64394;BMP280;50712;49.506;10.400;2022-10-23T01:12:28;98154.22;;;14.40
64394;BMP280;50712;49.506;10.400;2022-10-23T01:13:10;98165.19;;;14.40
64394;BMP280;50712;49.506;10.400;2022-10-23T01:13:48;98161.69;;;14.39
64394;BMP280;50712;49.506;10.400;2022-10-23T01:16:11;98162.13;;;14.38
64394;BMP280;50712;49.506;10.400;2022-10-23T01:17:27;98158.06;;;14.33
64394;BMP280;50712;49.506;10.400;2022-10-23T01:18:24;98155.00;;;14.31
64394;BMP280;50712;49.506;10.400;2022-10-23T01:20:09;98147.75;;;14.28
64394;BMP280;50712;49.506;10.400;2022-10-23T01:21:10;98152.00;;;14.29
64394;BMP280;50712;49.506;10.400;2022-10-23T01:27:30;98144.22;;;14.28
64394;BMP280;50712;49.506;10.400;2022-10-23T01:28:07;98138.00;;;14.27
64394;BMP280;50712;49.506;10.400;2022-10-23T01:30:05;98137.44;;;14.23
64394;BMP280;50712;49.506;10.400;2022-10-23T01:30:42;98135.91;;;14.22
64394;BMP280;50712;49.506;10.400;2022-10-23T01:31:22;98142.59;;;14.21
64394;BMP280;50712;49.506;10.400;2022-10-23T01:32:15;98141.84;;;14.20
64394;BMP280;50712;49.506;10.400;2022-10-23T01:33:08;98137.59;;;14.19
64394;BMP280;50712;49.506;10.400;2022-10-23T01:33:56;98141.84;;;14.20
64394;BMP280;50712;49.506;10.400;2022-10-23T01:35:28;98137.13;;;14.21
64394;BMP280;50712;49.506;10.400;2022-10-23T01:36:09;98137.13;;;14.21
64394;BMP280;50712;49.506;10.400;2022-10-23T01:36:44;98135.91;;;14.22
64394;BMP280;50712;49.506;10.400;2022-10-23T01:37:20;98133.94;;;14.23
64394;BMP280;50712;49.506;10.400;2022-10-23T01:38:51;98138.19;;;14.24
64394;BMP280;50712;49.506;10.400;2022-10-23T01:39:28;98126.47;;;14.23
64394;BMP280;50712;49.506;10.400;2022-10-23T01:40:01;98135.47;;;14.24
64394;BMP280;50712;49.506;10.400;2022-10-23T01:40:42;98132.22;;;14.25
64394;BMP280;50712;49.506;10.400;2022-10-23T01:42:24;98134.97;;;14.25
64394;BMP280;50712;49.506;10.400;2022-10-23T01:42:58;98133.44;;;14.24
64394;BMP280;50712;49.506;10.400;2022-10-23T01:43:36;98127.97;;;14.24
64394;BMP280;50712;49.506;10.400;2022-10-23T01:44:22;98132.22;;;14.25
64394;BMP280;50712;49.506;10.400;2022-10-23T01:45:03;98137.69;;;14.25
64394;BMP280;50712;49.506;10.400;2022-10-23T01:45:50;98121.75;;;14.24
64394;BMP280;50712;49.506;10.400;2022-10-23T01:46:24;98134.19;;;14.24
64394;BMP280;50712;49.506;10.400;2022-10-23T01:46:56;98122.50;;;14.24
64394;BMP280;50712;49.506;10.400;2022-10-23T01:47:30;98135.47;;;14.24
64394;BMP280;50712;49.506;10.400;2022-10-23T01:48:08;98136.47;;;14.26
64394;BMP280;50712;49.506;10.400;2022-10-23T01:48:47;98132.97;;;14.26
64394;BMP280;50712;49.506;10.400;2022-10-23T01:49:21;98138.47;;;14.26
64394;BMP280;50712;49.506;10.400;2022-10-23T01:49:56;98137.69;;;14.25
64394;BMP280;50712;49.506;10.400;2022-10-23T01:50:29;98137.69;;;14.25
64394;BMP280;50712;49.506;10.400;2022-10-23T01:51:06;98131.94;;;14.23
64394;BMP280;50712;49.506;10.400;2022-10-23T01:51:42;98132.72;;;14.24
64394;BMP280;50712;49.506;10.400;2022-10-23T01:52:16;98126.72;;;14.25
64394;BMP280;50712;49.506;10.400;2022-10-23T01:52:49;98129.97;;;14.24
64394;BMP280;50712;49.506;10.400;2022-10-23T01:53:20;98124.50;;;14.24
64394;BMP280;50712;49.506;10.400;2022-10-23T01:53:54;98124.50;;;14.24
64394;BMP280;50712;49.506;10.400;2022-10-23T01:54:28;98127.97;;;14.24
64394;BMP280;50712;49.506;10.400;2022-10-23T01:55:03;98129.47;;;14.25
64394;BMP280;50712;49.506;10.400;2022-10-23T01:55:37;98119.75;;;14.24
64394;BMP280;50712;49.506;10.400;2022-10-23T01:56:16;98127.22;;;14.24
64394;BMP280;50712;49.506;10.400;2022-10-23T01:56:51;98119.75;;;14.24
64394;BMP280;50712;49.506;10.400;2022-10-23T01:57:28;98120.22;;;14.23
64394;BMP280;50712;49.506;10.400;2022-10-23T01:58:02;98113.97;;;14.22
64394;BMP280;50712;49.506;10.400;2022-10-23T01:58:41;98120.66;;;14.21
64394;BMP280;50712;49.506;10.400;2022-10-23T01:59:21;98121.91;;;14.20
64394;BMP280;50712;49.506;10.400;2022-10-23T01:59:54;98112.94;;;14.19
64394;BMP280;50712;49.506;10.400;2022-10-23T02:00:30;98118.88;;;14.18
64394;BMP280;50712;49.506;10.400;2022-10-23T02:01:02;98125.84;;;14.19
64394;BMP280;50712;49.506;10.400;2022-10-23T02:01:42;98116.88;;;14.18
64394;BMP280;50712;49.506;10.400;2022-10-23T02:02:18;98125.09;;;14.18
64394;BMP280;50712;49.506;10.400;2022-10-23T02:02:52;98129.38;;;14.19
64394;BMP280;50712;49.506;10.400;2022-10-23T02:03:30;98128.59;;;14.19
64394;BMP280;50712;49.506;10.400;2022-10-23T02:04:04;98130.13;;;14.20
64394;BMP280;50712;49.506;10.400;2022-10-23T02:04:40;98122.69;;;14.20
64394;BMP280;50712;49.506;10.400;2022-10-23T02:05:20;98125.84;;;14.19
64394;BMP280;50712;49.506;10.400;2022-10-23T02:05:53;98119.63;;;14.18
64394;BMP280;50712;49.506;10.400;2022-10-23T02:06:24;98125.59;;;14.17
64394;BMP280;50712;49.506;10.400;2022-10-23T02:06:54;98122.09;;;14.16
64394;BMP280;50712;49.506;10.400;2022-10-23T02:07:25;98121.03;;;14.14
64394;BMP280;50712;49.506;10.400;2022-10-23T02:07:56;98119.50;;;14.13
64394;BMP280;50712;49.506;10.400;2022-10-23T02:08:27;98122.00;;;14.11
64394;BMP280;50712;49.506;10.400;2022-10-23T02:08:57;98116.94;;;14.09
64394;BMP280;50712;49.506;10.400;2022-10-23T02:09:28;98113.16;;;14.07
64394;BMP280;50712;49.506;10.400;2022-10-23T02:09:58;98113.63;;;14.05
64394;BMP280;50712;49.506;10.400;2022-10-23T02:10:31;98112.56;;;14.03
64394;BMP280;50712;49.506;10.400;2022-10-23T02:11:10;98112.28;;;14.01
64394;BMP280;50712;49.506;10.400;2022-10-23T02:12:03;98117.00;;;14.00
64394;BMP280;50712;49.506;10.400;2022-10-23T02:13:23;98116.69;;;13.98
64394;BMP280;50712;49.506;10.400;2022-10-23T02:14:01;98114.72;;;13.99
64394;BMP280;50712;49.506;10.400;2022-10-23T02:14:41;98113.22;;;13.98
64394;BMP280;50712;49.506;10.400;2022-10-23T02:16:01;98116.25;;;14.00
64394;BMP280;50712;49.506;10.400;2022-10-23T02:17:13;98113.03;;;14.01
64394;BMP280;50712;49.506;10.400;2022-10-23T02:18:34;98117.28;;;14.02
64394;BMP280;50712;49.506;10.400;2022-10-23T02:19:16;98110.59;;;14.03
64394;BMP280;50712;49.506;10.400;2022-10-23T02:19:57;98110.59;;;14.03
64394;BMP280;50712;49.506;10.400;2022-10-23T02:20:51;98105.13;;;14.03
64394;BMP280;50712;49.506;10.400;2022-10-23T02:21:28;98110.88;;;14.05
64394;BMP280;50712;49.506;10.400;2022-10-23T02:22:08;98112.13;;;14.04
64394;BMP280;50712;49.506;10.400;2022-10-23T02:22:46;98110.13;;;14.05
64394;BMP280;50712;49.506;10.400;2022-10-23T02:23:27;98114.88;;;14.04
64394;BMP280;50712;49.506;10.400;2022-10-23T02:24:09;98109.38;;;14.04
64394;BMP280;50712;49.506;10.400;2022-10-23T02:24:48;98118.34;;;14.05
64394;BMP280;50712;49.506;10.400;2022-10-23T02:25:27;98110.59;;;14.03
64394;BMP280;50712;49.506;10.400;2022-10-23T02:26:36;98117.59;;;14.04
64394;BMP280;50712;49.506;10.400;2022-10-23T02:27:12;98117.59;;;14.04
64394;BMP280;50712;49.506;10.400;2022-10-23T02:27:49;98114.09;;;14.04
64394;BMP280;50712;49.506;10.400;2022-10-23T02:28:25;98110.59;;;14.03
64394;BMP280;50712;49.506;10.400;2022-10-23T02:29:09;98105.88;;;14.04
64394;BMP280;50712;49.506;10.400;2022-10-23T02:29:51;98114.09;;;14.04
64394;BMP280;50712;49.506;10.400;2022-10-23T02:30:25;98109.84;;;14.03
64394;BMP280;50712;49.506;10.400;2022-10-23T02:31:11;98102.81;;;14.02
64394;BMP280;50712;49.506;10.400;2022-10-23T02:31:45;98114.53;;;14.02
64394;BMP280;50712;49.506;10.400;2022-10-23T02:32:16;98107.56;;;14.01
64394;BMP280;50712;49.506;10.400;2022-10-23T02:32:51;98115.78;;;14.01
64394;BMP280;50712;49.506;10.400;2022-10-23T02:33:25;98113.78;;;14.02
64394;BMP280;50712;49.506;10.400;2022-10-23T02:33:57;98113.78;;;14.02
64394;BMP280;50712;49.506;10.400;2022-10-23T02:34:28;98117.28;;;14.02
64394;BMP280;50712;49.506;10.400;2022-10-23T02:34:58;98113.78;;;14.02
64394;BMP280;50712;49.506;10.400;2022-10-23T02:35:29;98115.78;;;14.01
64394;BMP280;50712;49.506;10.400;2022-10-23T02:36:09;98119.25;;;14.02
64394;BMP280;50712;49.506;10.400;2022-10-23T02:36:40;98122.47;;;14.00
64394;BMP280;50712;49.506;10.400;2022-10-23T02:37:11;98120.50;;;14.01
64394;BMP280;50712;49.506;10.400;2022-10-23T02:37:41;98128.72;;;14.01
64394;BMP280;50712;49.506;10.400;2022-10-23T02:38:25;98122.47;;;14.00
64394;BMP280;50712;49.506;10.400;2022-10-23T02:38:58;98134.19;;;14.01
64394;BMP280;50712;49.506;10.400;2022-10-23T02:39:29;98118.22;;;13.99
64394;BMP280;50712;49.506;10.400;2022-10-23T02:40:00;98128.44;;;13.99
64394;BMP280;50712;49.506;10.400;2022-10-23T02:40:38;98114.72;;;13.99
64394;BMP280;50712;49.506;10.400;2022-10-23T02:41:46;98111.22;;;13.98
64394;BMP280;50712;49.506;10.400;2022-10-23T02:42:25;98119.44;;;13.98
64394;BMP280;50712;49.506;10.400;2022-10-23T02:43:05;98113.97;;;13.98
64394;BMP280;50712;49.506;10.400;2022-10-23T02:43:50;98113.97;;;13.98
64394;BMP280;50712;49.506;10.400;2022-10-23T02:45:32;98115.19;;;13.97
64394;BMP280;50712;49.506;10.400;2022-10-23T02:47:48;98117.63;;;13.95
64394;BMP280;50712;49.506;10.400;2022-10-23T02:48:28;98120.34;;;13.95
64394;BMP280;50712;49.506;10.400;2022-10-23T02:51:53;98114.31;;;13.91
64394;BMP280;50712;49.506;10.400;2022-10-23T02:53:56;98114.75;;;13.90
64394;BMP280;50712;49.506;10.400;2022-10-23T02:54:56;98109.28;;;13.90
64394;BMP280;50712;49.506;10.400;2022-10-23T02:56:43;98102.28;;;13.89
64394;BMP280;50712;49.506;10.400;2022-10-23T02:57:25;98096.06;;;13.88
64394;BMP280;50712;49.506;10.400;2022-10-23T02:59:05;98093.31;;;13.88
64394;BMP280;50712;49.506;10.400;2022-10-23T02:59:42;98090.59;;;13.88
64394;BMP280;50712;49.506;10.400;2022-10-23T03:00:17;98098.81;;;13.88
64394;BMP280;50712;49.506;10.400;2022-10-23T03:00:51;98093.81;;;13.87
64394;BMP280;50712;49.506;10.400;2022-10-23T03:01:45;98097.31;;;13.87
64394;BMP280;50712;49.506;10.400;2022-10-23T03:02:22;98103.53;;;13.88
64394;BMP280;50712;49.506;10.400;2022-10-23T03:02:59;98096.53;;;13.87
64394;BMP280;50712;49.506;10.400;2022-10-23T03:03:39;98102.78;;;13.87
64394;BMP280;50712;49.506;10.400;2022-10-23T03:04:13;98097.31;;;13.87
64394;BMP280;50712;49.506;10.400;2022-10-23T03:04:46;98091.06;;;13.87
64394;BMP280;50712;49.506;10.400;2022-10-23T03:05:18;98098.06;;;13.88
64394;BMP280;50712;49.506;10.400;2022-10-23T03:05:52;98096.53;;;13.87
64394;BMP280;50712;49.506;10.400;2022-10-23T03:06:22;98091.81;;;13.87
64394;BMP280;50712;49.506;10.400;2022-10-23T03:06:54;98090.28;;;13.86
64394;BMP280;50712;49.506;10.400;2022-10-23T03:07:26;98093.03;;;13.86
64394;BMP280;50712;49.506;10.400;2022-10-23T03:08:07;98100.03;;;13.87
64394;BMP280;50712;49.506;10.400;2022-10-23T03:08:40;98092.25;;;13.86
64394;BMP280;50712;49.506;10.400;2022-10-23T03:09:12;98091.06;;;13.87
64394;BMP280;50712;49.506;10.400;2022-10-23T03:09:43;98094.56;;;13.87
64394;BMP280;50712;49.506;10.400;2022-10-23T03:10:13;98091.06;;;13.87
64394;BMP280;50712;49.506;10.400;2022-10-23T03:10:43;98091.53;;;13.85
64394;BMP280;50712;49.506;10.400;2022-10-23T03:11:14;98091.53;;;13.85
64394;BMP280;50712;49.506;10.400;2022-10-23T03:11:44;98086.06;;;13.85
64394;BMP280;50712;49.506;10.400;2022-10-23T03:12:14;98088.78;;;13.85
64394;BMP280;50712;49.506;10.400;2022-10-23T03:12:45;98081.78;;;13.84
64394;BMP280;50712;49.506;10.400;2022-10-23T03:13:17;98085.72;;;13.83
64394;BMP280;50712;49.506;10.400;2022-10-23T03:13:48;98082.22;;;13.83
64394;BMP280;50712;49.506;10.400;2022-10-23T03:14:18;98076.75;;;13.83
64394;BMP280;50712;49.506;10.400;2022-10-23T03:14:49;98078.75;;;13.82
64394;BMP280;50712;49.506;10.400;2022-10-23T03:15:19;98081.50;;;13.82
64394;BMP280;50712;49.506;10.400;2022-10-23T03:15:52;98078.03;;;13.82
64394;BMP280;50712;49.506;10.400;2022-10-23T03:16:22;98073.75;;;13.81
64394;BMP280;50712;49.506;10.400;2022-10-23T03:16:56;98072.97;;;13.80
64394;BMP280;50712;49.506;10.400;2022-10-23T03:17:28;98082.41;;;13.79
64394;BMP280;50712;49.506;10.400;2022-10-23T03:18:01;98079.66;;;13.79
64394;BMP280;50712;49.506;10.400;2022-10-23T03:18:32;98084.41;;;13.79
64394;BMP280;50712;49.506;10.400;2022-10-23T03:19:03;98077.41;;;13.78
64394;BMP280;50712;49.506;10.400;2022-10-23T03:19:34;98072.69;;;13.78
64394;BMP280;50712;49.506;10.400;2022-10-23T03:20:06;98073.91;;;13.77
64394;BMP280;50712;49.506;10.400;2022-10-23T03:20:39;98075.09;;;13.76
64394;BMP280;50712;49.506;10.400;2022-10-23T03:21:09;98082.59;;;13.76
64394;BMP280;50712;49.506;10.400;2022-10-23T03:21:39;98080.31;;;13.74
64394;BMP280;50712;49.506;10.400;2022-10-23T03:22:11;98085.31;;;13.76
64394;BMP280;50712;49.506;10.400;2022-10-23T03:22:42;98072.88;;;13.75
64394;BMP280;50712;49.506;10.400;2022-10-23T03:23:12;98088.53;;;13.74
64394;BMP280;50712;49.506;10.400;2022-10-23T03:23:43;98074.84;;;13.74
64394;BMP280;50712;49.506;10.400;2022-10-23T03:24:19;98076.06;;;13.73
64394;BMP280;50712;49.506;10.400;2022-10-23T03:24:50;98072.25;;;13.71
64394;BMP280;50712;49.506;10.400;2022-10-23T03:25:20;98070.56;;;13.73
64394;BMP280;50712;49.506;10.400;2022-10-23T03:25:51;98078.06;;;13.73
64394;BMP280;50712;49.506;10.400;2022-10-23T03:26:35;98076.06;;;13.73
64394;BMP280;50712;49.506;10.400;2022-10-23T03:27:06;98068.31;;;13.72
64394;BMP280;50712;49.506;10.400;2022-10-23T03:27:36;98070.28;;;13.71
64394;BMP280;50712;49.506;10.400;2022-10-23T03:28:09;98069.06;;;13.72
64394;BMP280;50712;49.506;10.400;2022-10-23T03:28:40;98076.53;;;13.72
64394;BMP280;50712;49.506;10.400;2022-10-23T03:29:10;98070.28;;;13.71
64394;BMP280;50712;49.506;10.400;2022-10-23T03:29:46;98075.75;;;13.71
64394;BMP280;50712;49.506;10.400;2022-10-23T03:30:18;98076.53;;;13.72
64394;BMP280;50712;49.506;10.400;2022-10-23T03:30:52;75006.88;;;-142.36
64394;BMP280;50712;49.506;10.400;2022-10-23T03:31:22;75006.88;;;-142.36
64394;BMP280;50712;49.506;10.400;2022-10-23T03:31:58;75006.88;;;-142.36
64394;BMP280;50712;49.506;10.400;2022-10-23T03:32:29;75006.88;;;-142.36
64394;BMP280;50712;49.506;10.400;2022-10-23T03:33:00;75006.88;;;-142.36
64394;BMP280;50712;49.506;10.400;2022-10-23T03:33:30;75006.88;;;-142.36
64394;BMP280;50712;49.506;10.400;2022-10-23T03:34:08;75006.88;;;-142.36
64394;BMP280;50712;49.506;10.400;2022-10-23T03:34:42;75006.88;;;-142.36
64394;BMP280;50712;49.506;10.400;2022-10-23T03:35:12;75006.88;;;-142.36
64394;BMP280;50712;49.506;10.400;2022-10-23T03:35:43;75006.88;;;-142.36
64394;BMP280;50712;49.506;10.400;2022-10-23T03:36:17;75006.88;;;-142.36
64394;BMP280;50712;49.506;10.400;2022-10-23T03:36:48;75006.88;;;-142.36
64394;BMP280;50712;49.506;10.400;2022-10-23T03:37:18;75006.88;;;-142.36
64394;BMP280;50712;49.506;10.400;2022-10-23T03:37:49;75006.88;;;-142.36
64394;BMP280;50712;49.506;10.400;2022-10-23T03:38:20;75006.88;;;-142.36
64394;BMP280;50712;49.506;10.400;2022-10-23T03:38:51;75006.88;;;-142.36
64394;BMP280;50712;49.506;10.400;2022-10-23T03:39:21;75006.88;;;-142.36
64394;BMP280;50712;49.506;10.400;2022-10-23T03:39:51;75006.88;;;-142.36
64394;BMP280;50712;49.506;10.400;2022-10-23T03:40:22;75006.88;;;-142.36
64394;BMP280;50712;49.506;10.400;2022-10-23T03:40:52;75006.88;;;-142.36
64394;BMP280;50712;49.506;10.400;2022-10-23T03:41:22;75006.88;;;-142.36
64394;BMP280;50712;49.506;10.400;2022-10-23T03:41:53;75006.88;;;-142.36
64394;BMP280;50712;49.506;10.400;2022-10-23T03:42:24;75006.88;;;-142.36
64394;BMP280;50712;49.506;10.400;2022-10-23T03:42:54;75006.88;;;-142.36
64394;BMP280;50712;49.506;10.400;2022-10-23T03:43:25;75006.88;;;-142.36
64394;BMP280;50712;49.506;10.400;2022-10-23T03:43:55;75006.88;;;-142.36